Time;durP1;ratioP1;P1;durP2;ratioP2;P2;SDS_P1;SDS_P2;PMS_P1;PMS_P2;Temp;Humidity;BMP_temperature;BMP_pressure;BME280_temperature;BME280_humidity;BME280_pressure;Samples;Min_cycle;Max_cycle;Signal;HPM_P1;HPM_P2
2022/10/22 00:00:08;;;;;;;2.93;2.73;;;;;;;16.58;67.19;100737.69;4901959;28;97138;-50
2022/10/22 00:02:33;;;;;;;4.70;3.60;;;;;;;16.57;67.11;100750.06;4903625;28;97056;-46
2022/10/22 00:04:58;;;;;;;7.40;2.90;;;;;;;16.55;67.07;100752.63;4906039;28;100036;-46
2022/10/22 00:07:25;;;;;;;6.53;3.30;;;;;;;16.53;67.11;100746.88;4906977;28;97596;-47
2022/10/22 00:09:50;;;;;;;6.77;3.43;;;;;;;16.49;67.23;100756.22;4901491;28;98127;-45
2022/10/22 00:12:16;;;;;;;4.27;3.23;;;;;;;16.49;67.16;100749.91;4905527;28;98347;-45
2022/10/22 00:14:42;;;;;;;5.27;3.23;;;;;;;16.48;67.01;100756.75;4904430;28;98212;-47
2022/10/22 00:17:07;;;;;;;4.30;3.60;;;;;;;16.45;67.07;100763.34;4904437;28;97324;-44
2022/10/22 00:19:32;;;;;;;8.70;3.37;;;;;;;16.44;67.02;100757.06;4900041;28;97081;-45
2022/10/22 00:21:58;;;;;;;4.93;3.23;;;;;;;16.42;67.07;100756.84;4903876;28;110173;-48
2022/10/22 00:24:24;;;;;;;2.93;2.73;;;;;;;16.38;66.95;100761.94;4903223;28;97033;-45
2022/10/22 00:26:49;;;;;;;7.20;2.90;;;;;;;16.37;67.10;100768.03;4904882;28;97326;-46
2022/10/22 00:29:18;;;;;;;3.63;3.30;;;;;;;16.34;66.93;100766.31;4902026;28;97295;-44
2022/10/22 00:31:48;;;;;;;10.10;2.80;;;;;;;16.33;66.74;100762.06;4902041;28;97523;-46
2022/10/22 00:34:14;;;;;;;3.67;3.37;;;;;;;16.28;66.63;100768.44;4905028;28;97047;-45
2022/10/22 00:36:40;;;;;;;4.03;2.90;;;;;;;16.22;66.82;100754.66;4901492;28;96952;-47
2022/10/22 00:39:05;;;;;;;3.10;2.80;;;;;;;16.17;66.84;100761.03;4905866;28;116805;-48
2022/10/22 00:41:30;;;;;;;2.97;2.63;;;;;;;16.15;66.88;100773.94;4903783;28;111271;-49
2022/10/22 00:44:01;;;;;;;3.53;2.87;;;;;;;16.12;66.81;100780.56;4904999;28;97509;-47
2022/10/22 00:46:27;;;;;;;5.53;3.17;;;;;;;16.10;66.96;100783.09;4901030;28;96962;-45
2022/10/22 00:48:55;;;;;;;3.43;2.50;;;;;;;16.09;66.82;100787.16;4903761;28;97948;-46
2022/10/22 00:51:23;;;;;;;8.63;2.83;;;;;;;16.07;66.88;100793.25;4901515;28;98807;-45
2022/10/22 00:53:53;;;;;;;4.73;2.83;;;;;;;16.02;66.66;100777.41;4901022;28;96996;-45
2022/10/22 00:56:19;;;;;;;8.33;2.87;;;;;;;15.99;66.63;100788.84;4903307;28;97852;-45
2022/10/22 00:58:52;;;;;;;2.67;2.47;;;;;;;15.92;66.64;100784.63;4901442;28;97140;-47
2022/10/22 01:01:21;;;;;;;3.33;2.53;;;;;;;15.83;66.83;100776.69;4903288;28;99022;-45
2022/10/22 01:03:47;;;;;;;2.80;2.60;;;;;;;15.83;66.85;100781.47;4900097;28;97005;-50
2022/10/22 01:06:20;;;;;;;5.87;2.50;;;;;;;15.80;66.86;100776.97;4905050;28;96931;-46
2022/10/22 01:09:21;;;;;;;2.80;2.60;;;;;;;15.76;66.72;100771.75;4905100;28;96826;-45
2022/10/22 01:11:52;;;;;;;4.90;2.07;;;;;;;15.67;66.63;100755.47;4890900;28;102375;-47
2022/10/22 01:14:23;;;;;;;5.13;2.57;;;;;;;15.64;66.96;100756.50;4904866;28;97498;-45
2022/10/22 01:17:02;;;;;;;8.03;2.10;;;;;;;15.62;66.92;100759.81;4906943;28;97426;-48
2022/10/22 01:19:49;;;;;;;3.50;2.50;;;;;;;15.62;66.96;100773.69;4905126;28;97640;-46
2022/10/22 01:22:28;;;;;;;4.40;2.37;;;;;;;15.63;66.92;100777.97;4905999;28;100585;-45
2022/10/22 01:25:04;;;;;;;4.27;2.30;;;;;;;15.62;66.85;100786.78;4907610;28;97383;-46
2022/10/22 01:27:33;;;;;;;3.30;2.20;;;;;;;15.60;66.93;100784.56;4902531;28;97709;-47
2022/10/22 01:30:04;;;;;;;5.43;2.33;;;;;;;15.61;66.86;100786.06;4907121;28;96954;-46
2022/10/22 01:32:34;;;;;;;4.10;1.97;;;;;;;15.61;66.92;100780.50;4904350;28;98002;-48
2022/10/22 01:35:04;;;;;;;2.87;2.17;;;;;;;15.63;66.76;100779.97;4902074;28;97027;-45
2022/10/22 01:37:35;;;;;;;2.13;1.90;;;;;;;15.61;66.66;100774.22;4905555;28;97127;-48
2022/10/22 01:40:02;;;;;;;5.80;2.40;;;;;;;15.52;66.57;100775.34;4905577;28;101929;-47
2022/10/22 01:42:27;;;;;;;3.77;2.17;;;;;;;15.45;66.64;100770.38;4905798;28;101776;-46
2022/10/22 01:44:52;;;;;;;3.90;2.10;;;;;;;15.39;66.72;100766.16;4903891;28;110109;-46
2022/10/22 01:47:54;;;;;;;2.27;2.07;;;;;;;15.37;66.81;100771.47;4904527;28;96667;-46
2022/10/22 01:50:31;;;;;;;6.13;1.97;;;;;;;15.36;66.80;100783.81;4901445;28;100576;-45
2022/10/22 01:53:14;;;;;;;2.37;2.17;;;;;;;15.39;66.71;100760.59;4904042;28;98388;-46
2022/10/22 01:55:39;;;;;;;2.63;2.43;;;;;;;15.35;66.55;100760.16;4904154;28;97364;-45
2022/10/22 01:58:07;;;;;;;3.70;2.17;;;;;;;15.30;66.62;100755.41;4904304;28;97184;-45
2022/10/22 02:00:38;;;;;;;4.13;2.47;;;;;;;15.27;66.68;100753.69;4907471;28;98234;-45
2022/10/22 02:03:24;;;;;;;7.13;2.43;;;;;;;15.25;66.58;100762.53;4907599;28;97621;-47
2022/10/22 02:05:57;;;;;;;2.73;2.17;;;;;;;15.25;66.88;100756.97;4904329;28;97292;-48
2022/10/22 02:08:34;;;;;;;2.50;1.97;;;;;;;15.27;66.78;100767.53;4902777;28;97182;-47
2022/10/22 02:11:00;;;;;;;4.10;2.37;;;;;;;15.29;67.00;100762.25;4905579;28;102064;-49
2022/10/22 02:13:32;;;;;;;5.80;2.60;;;;;;;15.31;66.85;100757.66;4904635;28;97037;-45
2022/10/22 02:15:58;;;;;;;8.33;2.40;;;;;;;15.32;66.65;100761.19;4904447;28;97631;-45
2022/10/22 02:18:28;;;;;;;2.20;2.00;;;;;;;15.31;66.75;100768.00;4904411;28;97172;-45
2022/10/22 02:20:54;;;;;;;4.10;2.27;;;;;;;15.31;66.80;100770.78;4900476;28;97216;-47
2022/10/22 02:23:20;;;;;;;7.00;2.10;;;;;;;15.32;66.79;100766.72;4903513;28;97315;-44
2022/10/22 02:25:50;;;;;;;1.90;1.80;;;;;;;15.32;66.67;100767.47;4905425;28;97520;-46
2022/10/22 02:28:28;;;;;;;7.73;2.20;;;;;;;15.32;66.63;100772.28;4904314;28;97462;-50
2022/10/22 02:30:59;;;;;;;2.93;1.77;;;;;;;15.31;66.70;100768.75;4902731;28;97630;-48
2022/10/22 02:33:32;;;;;;;7.93;2.47;;;;;;;15.31;66.69;100759.69;4905659;28;96768;-48
2022/10/22 02:36:00;;;;;;;6.90;2.20;;;;;;;15.31;66.66;100770.78;4905448;28;97061;-46
2022/10/22 02:38:27;;;;;;;3.27;2.30;;;;;;;15.29;66.71;100770.56;4903234;28;97094;-45
2022/10/22 02:40:52;;;;;;;2.80;1.40;;;;;;;15.26;66.58;100774.38;4902366;28;98629;-48
2022/10/22 02:43:18;;;;;;;2.53;2.43;;;;;;;15.22;66.54;100762.81;4907024;28;97371;-46
2022/10/22 02:45:43;;;;;;;2.60;2.50;;;;;;;15.17;66.61;100772.69;4901698;28;97624;-45
2022/10/22 02:48:09;;;;;;;6.50;2.30;;;;;;;15.14;66.52;100784.06;4904741;28;97013;-46
2022/10/22 02:50:34;;;;;;;13.80;2.30;;;;;;;15.12;66.67;100781.06;4904752;28;96822;-48
2022/10/22 02:52:59;;;;;;;4.83;2.10;;;;;;;15.16;66.86;100792.63;4906312;28;97149;-44
2022/10/22 02:55:25;;;;;;;8.10;1.93;;;;;;;15.17;66.82;100792.09;4904013;28;96983;-45
2022/10/22 02:57:50;;;;;;;2.20;1.80;;;;;;;15.16;66.79;100785.03;4906426;28;97300;-45
2022/10/22 03:00:16;;;;;;;4.50;1.90;;;;;;;15.17;66.87;100792.09;4905881;28;96905;-45
2022/10/22 03:02:41;;;;;;;9.87;2.23;;;;;;;15.16;66.75;100792.63;4900186;28;97229;-46
2022/10/22 03:05:07;;;;;;;3.03;2.33;;;;;;;15.16;66.82;100792.63;4904436;28;97243;-47
2022/10/22 03:07:33;;;;;;;4.03;2.33;;;;;;;15.15;66.73;100796.66;4899212;28;97143;-45
2022/10/22 03:09:58;;;;;;;7.17;2.80;;;;;;;15.13;66.65;100790.88;4902940;28;97200;-45
2022/10/22 03:12:24;;;;;;;2.23;1.87;;;;;;;15.07;66.55;100787.44;4900695;28;96936;-47
2022/10/22 03:14:49;;;;;;;5.20;2.43;;;;;;;15.01;66.56;100790.25;4906467;28;97615;-44
2022/10/22 03:17:14;;;;;;;3.70;2.17;;;;;;;14.96;66.52;100783.50;4903768;28;97751;-45
2022/10/22 03:19:40;;;;;;;3.47;2.57;;;;;;;14.91;66.54;100778.78;4903658;28;111388;-45
2022/10/22 03:22:10;;;;;;;3.60;2.50;;;;;;;14.92;66.49;100776.72;4906385;28;97408;-48
2022/10/22 03:24:49;;;;;;;5.03;1.87;;;;;;;14.91;66.49;100781.53;4902567;28;97114;-45
2022/10/22 03:27:17;;;;;;;6.27;2.30;;;;;;;14.91;66.66;100789.09;4900063;28;96742;-47
2022/10/22 03:29:43;;;;;;;3.20;2.17;;;;;;;14.90;66.63;100793.88;4905377;28;97856;-47
2022/10/22 03:32:08;;;;;;;8.43;2.37;;;;;;;14.92;66.66;100801.66;4905098;28;97483;-45
2022/10/22 03:34:34;;;;;;;5.30;2.00;;;;;;;14.92;66.68;100794.13;4904945;28;97337;-45
2022/10/22 03:37:00;;;;;;;5.90;2.00;;;;;;;14.93;66.76;100792.84;4903388;28;97256;-45
2022/10/22 03:39:28;;;;;;;8.30;2.20;;;;;;;14.94;66.56;100796.34;4904861;28;97481;-45
2022/10/22 03:41:54;;;;;;;3.17;2.20;;;;;;;14.93;66.62;100798.41;4904193;28;99429;-45
2022/10/22 03:44:21;;;;;;;6.10;2.07;;;;;;;14.92;66.44;100802.41;4904102;28;103475;-45
2022/10/22 03:46:47;;;;;;;2.30;2.20;;;;;;;14.92;66.42;100791.34;4904623;28;103855;-46
2022/10/22 03:49:12;;;;;;;3.47;2.10;;;;;;;14.90;66.42;100806.97;4897837;28;100756;-48
2022/10/22 03:51:38;;;;;;;3.27;2.10;;;;;;;14.89;66.60;100808.25;4903085;28;97166;-46
2022/10/22 03:54:03;;;;;;;3.63;1.97;;;;;;;14.88;66.70;100807.50;4904112;28;97001;-46
2022/10/22 03:56:29;;;;;;;8.27;2.20;;;;;;;14.89;66.57;100811.78;4903643;28;96992;-49
2022/10/22 03:59:00;;;;;;;4.00;2.33;;;;;;;14.90;66.68;100795.91;4902399;28;97909;-48
2022/10/22 04:01:28;;;;;;;2.60;2.33;;;;;;;14.86;66.48;100804.50;4904568;28;97382;-45
2022/10/22 04:03:54;;;;;;;2.70;2.43;;;;;;;14.84;66.61;100809.81;4906783;28;96971;-50
2022/10/22 04:06:19;;;;;;;2.43;2.23;;;;;;;14.81;66.45;100802.53;4903546;28;97274;-45
2022/10/22 04:08:44;;;;;;;13.10;2.10;;;;;;;14.79;66.52;100807.84;4899693;28;97214;-47
2022/10/22 04:11:12;;;;;;;3.50;1.93;;;;;;;14.76;66.63;100817.19;4904455;28;97462;-45
2022/10/22 04:13:37;;;;;;;3.90;2.40;;;;;;;14.75;66.66;100812.16;4896687;28;97209;-47
2022/10/22 04:16:14;;;;;;;4.07;2.50;;;;;;;14.75;66.48;100815.69;4900583;28;97217;-45
2022/10/22 04:18:41;;;;;;;6.90;2.00;;;;;;;14.73;66.55;100823.00;4903246;28;97560;-47
2022/10/22 04:21:08;;;;;;;4.53;2.50;;;;;;;14.73;66.63;100823.00;4902077;28;97549;-46
2022/10/22 04:23:33;;;;;;;3.77;1.97;;;;;;;14.70;66.75;100830.31;4902749;28;98159;-46
2022/10/22 04:26:02;;;;;;;4.40;2.00;;;;;;;14.71;66.63;100837.38;4902200;28;96940;-50
2022/10/22 04:28:27;;;;;;;3.47;2.23;;;;;;;14.69;66.66;100837.13;4903738;28;97839;-45
2022/10/22 04:30:53;;;;;;;6.53;2.70;;;;;;;14.69;66.75;100837.13;4901729;28;97397;-44
2022/10/22 04:33:18;;;;;;;3.50;2.40;;;;;;;14.70;66.70;100832.34;4905595;28;97340;-47
2022/10/22 04:35:43;;;;;;;2.20;2.00;;;;;;;14.70;66.64;100833.09;4903231;28;96852;-44
2022/10/22 04:38:09;;;;;;;1.50;1.40;;;;;;;14.67;66.61;100830.59;4901455;28;97678;-46
2022/10/22 04:40:34;;;;;;;3.43;2.20;;;;;;;14.65;66.66;100833.91;4903984;28;96856;-48
2022/10/22 04:43:00;;;;;;;8.87;2.50;;;;;;;14.64;66.57;100832.41;4905163;28;97298;-45
2022/10/22 04:45:25;;;;;;;7.00;2.30;;;;;;;14.62;66.52;100837.69;4903114;28;108227;-47
2022/10/22 04:47:50;;;;;;;4.37;2.23;;;;;;;14.58;66.50;100836.47;4903358;28;96971;-46
2022/10/22 04:50:16;;;;;;;1.80;1.70;;;;;;;14.56;66.47;100834.22;4902926;28;98811;-46
2022/10/22 04:52:41;;;;;;;1.77;1.67;;;;;;;14.57;66.47;100841.25;4900965;28;96679;-48
2022/10/22 04:55:07;;;;;;;4.93;2.50;;;;;;;14.55;66.32;100831.94;4901687;28;107053;-46
2022/10/22 04:57:32;;;;;;;5.43;1.57;;;;;;;14.53;66.35;100840.78;4899805;28;97021;-49
2022/10/22 04:59:57;;;;;;;2.73;2.30;;;;;;;14.50;66.41;100841.84;4899337;28;112172;-47
2022/10/22 05:02:23;;;;;;;3.47;2.27;;;;;;;14.48;66.37;100858.19;4904086;28;110371;-45
2022/10/22 05:04:48;;;;;;;3.50;2.03;;;;;;;14.49;66.54;100847.84;4904751;28;97600;-46
2022/10/22 05:07:13;;;;;;;5.27;2.27;;;;;;;14.47;66.54;100851.16;4902484;28;97830;-46
2022/10/22 05:09:39;;;;;;;6.53;2.53;;;;;;;14.44;66.50;100852.16;4904255;28;106170;-44
2022/10/22 05:12:05;;;;;;;5.20;2.17;;;;;;;14.43;66.49;100855.47;4901028;28;96927;-46
2022/10/22 05:14:31;;;;;;;1.70;1.60;;;;;;;14.42;66.64;100853.94;4901493;28;97354;-48
2022/10/22 05:16:57;;;;;;;3.33;2.13;;;;;;;14.42;66.69;100863.00;4905212;28;97898;-46
2022/10/22 05:19:25;;;;;;;2.30;2.10;;;;;;;14.43;66.56;100866.53;4902489;28;96929;-45
2022/10/22 05:21:55;;;;;;;4.73;1.93;;;;;;;14.43;66.42;100861.00;4900736;28;96965;-46
2022/10/22 05:24:21;;;;;;;4.50;1.93;;;;;;;14.38;66.52;100865.31;4904277;28;96718;-48
2022/10/22 05:26:51;;;;;;;2.40;2.20;;;;;;;14.35;66.59;100865.59;4903490;28;97884;-51
2022/10/22 05:29:17;;;;;;;3.27;1.90;;;;;;;14.31;66.70;100867.88;4901549;28;101002;-45
2022/10/22 05:31:43;;;;;;;2.37;2.17;;;;;;;14.30;66.66;100869.13;4903635;28;97116;-45
2022/10/22 05:34:08;;;;;;;1.93;1.77;;;;;;;14.28;66.66;100861.31;4906184;28;97031;-46
2022/10/22 05:36:33;;;;;;;2.40;1.93;;;;;;;14.27;66.62;100866.09;4903660;28;97196;-45
2022/10/22 05:38:59;;;;;;;4.67;2.03;;;;;;;14.24;66.61;100866.38;4898193;28;97111;-44
2022/10/22 05:41:25;;;;;;;2.53;2.27;;;;;;;14.21;66.61;100859.09;4900046;28;97609;-45
2022/10/22 05:43:54;;;;;;;2.10;1.70;;;;;;;14.17;66.49;100862.16;4905769;28;97344;-45
2022/10/22 05:46:21;;;;;;;5.17;2.07;;;;;;;14.12;66.58;100865.69;4895527;28;98611;-45
2022/10/22 05:48:58;;;;;;;3.13;1.70;;;;;;;14.07;66.54;100865.69;4899940;28;97274;-51
2022/10/22 05:51:25;;;;;;;2.30;1.70;;;;;;;14.01;66.70;100862.97;4902960;28;96953;-44
2022/10/22 05:53:53;;;;;;;11.00;2.20;;;;;;;13.98;66.68;100869.53;4904236;28;97401;-47
2022/10/22 05:56:18;;;;;;;2.07;1.97;;;;;;;13.96;66.61;100865.75;4902681;28;97462;-44
2022/10/22 05:58:44;;;;;;;2.50;1.63;;;;;;;13.98;66.65;100871.53;4905400;28;97744;-46
2022/10/22 06:01:14;;;;;;;2.17;1.97;;;;;;;13.98;66.64;100871.53;4904383;28;97462;-46
2022/10/22 06:03:40;;;;;;;5.67;1.80;;;;;;;13.93;66.41;100875.84;4905151;28;97122;-45
2022/10/22 06:06:33;;;;;;;1.83;1.70;;;;;;;13.89;66.54;100875.34;4905465;28;97744;-49
2022/10/22 06:09:03;;;;;;;1.83;1.73;;;;;;;13.79;66.44;100881.66;4900241;28;100040;-44
2022/10/22 06:11:29;;;;;;;2.13;2.03;;;;;;;13.73;66.54;100883.72;4905904;28;97163;-47
2022/10/22 06:13:54;;;;;;;3.50;2.00;;;;;;;13.65;66.60;100882.75;4905821;28;96820;-45
2022/10/22 06:16:19;;;;;;;1.60;1.50;;;;;;;13.64;66.83;100886.75;4901677;28;98463;-49
2022/10/22 06:18:45;;;;;;;3.60;1.97;;;;;;;13.63;66.90;100894.28;4905120;28;97392;-45
2022/10/22 06:21:13;;;;;;;5.97;2.40;;;;;;;13.65;66.82;100888.28;4906684;28;96840;-47
2022/10/22 06:23:39;;;;;;;3.00;1.70;;;;;;;13.67;66.84;100891.28;4906932;28;96941;-47
2022/10/22 06:26:06;;;;;;;1.83;1.43;;;;;;;13.64;66.68;100897.81;4904968;28;100616;-48
2022/10/22 06:28:32;;;;;;;1.77;1.67;;;;;;;13.63;66.71;100901.84;4904185;28;97373;-46
2022/10/22 06:30:58;;;;;;;6.63;1.97;;;;;;;13.64;66.72;100908.88;4905802;28;96757;-46
2022/10/22 06:33:25;;;;;;;1.73;1.63;;;;;;;13.65;66.70;100913.16;4901135;28;97469;-45
2022/10/22 06:35:50;;;;;;;2.10;1.90;;;;;;;13.66;66.82;100906.34;4905500;28;96804;-45
2022/10/22 06:38:16;;;;;;;4.20;1.73;;;;;;;13.67;66.82;100910.63;4905383;28;97212;-45
2022/10/22 06:40:43;;;;;;;5.83;1.67;;;;;;;13.64;66.40;100914.41;4904303;28;97347;-48
2022/10/22 06:43:09;;;;;;;2.50;1.40;;;;;;;13.61;66.61;100918.19;4901820;28;97137;-45
2022/10/22 06:45:35;;;;;;;2.23;1.47;;;;;;;13.61;66.63;100930.00;4904743;28;97569;-45
2022/10/22 06:48:00;;;;;;;5.70;1.53;;;;;;;13.62;66.67;100933.50;4906774;28;111342;-45
2022/10/22 06:50:25;;;;;;;1.70;1.60;;;;;;;13.62;66.62;100933.50;4903919;28;106917;-45
2022/10/22 06:52:51;;;;;;;8.53;1.77;;;;;;;13.60;66.69;100936.78;4902523;28;97203;-45
2022/10/22 06:55:16;;;;;;;1.33;1.23;;;;;;;13.61;66.73;100943.81;4905214;28;102704;-48
2022/10/22 06:57:41;;;;;;;4.00;1.40;;;;;;;13.59;66.59;100945.56;4905074;28;97392;-45
2022/10/22 07:00:07;;;;;;;1.43;1.23;;;;;;;13.58;66.79;100949.59;4905607;28;97369;-49
2022/10/22 07:02:33;;;;;;;2.10;1.50;;;;;;;13.58;66.67;100952.38;4905060;28;97000;-48
2022/10/22 07:04:58;;;;;;;3.10;1.40;;;;;;;13.58;66.61;100953.13;4904271;28;103797;-47
2022/10/22 07:07:24;;;;;;;2.90;1.80;;;;;;;13.58;66.63;100955.13;4905158;28;110248;-44
2022/10/22 07:09:49;;;;;;;3.60;1.80;;;;;;;13.54;66.70;100958.91;4903774;28;101961;-49
2022/10/22 07:12:15;;;;;;;2.50;1.80;;;;;;;13.55;66.58;100954.13;4905844;28;97425;-45
2022/10/22 07:14:40;;;;;;;1.43;1.33;;;;;;;13.53;66.83;100965.69;4901777;28;96956;-45
2022/10/22 07:17:06;;;;;;;11.03;2.43;;;;;;;13.51;66.51;100962.69;4903214;28;97197;-46
2022/10/22 07:19:31;;;;;;;1.77;1.67;;;;;;;13.49;66.59;100967.22;4901050;28;97747;-45
2022/10/22 07:21:56;;;;;;;6.90;1.47;;;;;;;13.49;66.66;100964.44;4907637;28;97383;-48
2022/10/22 07:24:22;;;;;;;2.00;1.53;;;;;;;13.48;66.60;100966.47;4904230;28;97568;-44
2022/10/22 07:26:47;;;;;;;1.70;1.60;;;;;;;13.49;66.60;100979.03;4904473;28;97266;-49
2022/10/22 07:29:14;;;;;;;3.53;1.50;;;;;;;13.51;66.59;100982.03;4904846;28;97123;-45
2022/10/22 07:31:40;;;;;;;6.80;1.83;;;;;;;13.54;66.79;100983.06;4905964;28;97353;-47
2022/10/22 07:34:05;;;;;;;4.20;1.20;;;;;;;13.52;66.63;100978.00;4904651;28;96996;-45
2022/10/22 07:36:31;;;;;;;6.43;1.80;;;;;;;13.56;66.72;100980.53;4903523;28;112587;-47
2022/10/22 07:38:58;;;;;;;1.77;1.30;;;;;;;13.61;66.56;100990.06;4901945;28;99184;-47
2022/10/22 07:41:24;;;;;;;1.13;1.13;;;;;;;13.62;66.70;100974.97;4903196;28;97323;-45
2022/10/22 07:43:50;;;;;;;2.30;1.57;;;;;;;13.67;66.78;100977.00;4903623;28;97844;-45
2022/10/22 07:46:15;;;;;;;2.70;1.87;;;;;;;13.71;66.94;100994.06;4906348;28;97410;-45
2022/10/22 07:48:40;;;;;;;1.90;1.80;;;;;;;13.74;66.87;100995.84;4902703;28;107118;-45
2022/10/22 07:51:06;;;;;;;5.60;2.00;;;;;;;13.78;66.70;100988.75;4900397;28;97492;-45
2022/10/22 07:53:32;;;;;;;2.80;1.40;;;;;;;13.81;66.85;100989.75;4903988;28;97274;-50
2022/10/22 07:55:58;;;;;;;3.23;1.40;;;;;;;13.85;66.79;100996.53;4905810;28;97134;-46
2022/10/22 07:58:23;;;;;;;4.20;1.83;;;;;;;13.89;66.87;100990.78;4903468;28;97449;-46
2022/10/22 08:00:49;;;;;;;1.97;1.87;;;;;;;13.96;66.90;100993.00;4897730;28;97332;-46
2022/10/22 08:03:16;;;;;;;2.57;1.60;;;;;;;14.00;66.90;100990.75;4902468;28;103747;-46
2022/10/22 08:05:43;;;;;;;3.47;1.80;;;;;;;14.04;66.88;100996.75;4902916;28;97399;-50
2022/10/22 08:08:10;;;;;;;3.97;1.97;;;;;;;14.08;67.03;100991.72;4902158;28;96961;-47
2022/10/22 08:10:35;;;;;;;1.77;1.43;;;;;;;14.11;67.09;101001.75;4902842;28;96975;-46
2022/10/22 08:13:00;;;;;;;1.60;1.50;;;;;;;14.18;67.13;101001.22;4905342;28;96894;-50
2022/10/22 08:15:26;;;;;;;4.33;2.40;;;;;;;14.26;67.23;101002.97;4904238;28;96743;-45
2022/10/22 08:17:52;;;;;;;1.97;1.87;;;;;;;14.33;67.09;101007.25;4905006;28;96687;-45
2022/10/22 08:20:18;;;;;;;2.20;1.90;;;;;;;14.39;67.06;101008.00;4903943;28;96750;-49
2022/10/22 08:22:43;;;;;;;3.73;1.60;;;;;;;14.46;67.20;101012.25;4886239;28;97196;-47
2022/10/22 08:25:09;;;;;;;3.00;1.80;;;;;;;14.52;67.18;101013.72;4897064;28;98685;-46
2022/10/22 08:27:35;;;;;;;2.87;2.07;;;;;;;14.60;67.20;101016.69;4898652;28;97419;-45
2022/10/22 08:30:00;;;;;;;11.83;3.17;;;;;;;14.65;67.19;101022.22;4895109;28;98745;-45
2022/10/22 08:32:25;;;;;;;4.70;2.83;;;;;;;14.71;67.24;101014.63;4899111;28;98723;-47
2022/10/22 08:34:51;;;;;;;2.90;2.70;;;;;;;14.79;67.27;101023.13;4897851;28;98455;-46
2022/10/22 08:37:16;;;;;;;6.80;2.80;;;;;;;14.87;67.40;101018.56;4894300;28;97179;-49
2022/10/22 08:39:43;;;;;;;7.63;2.90;;;;;;;14.92;67.56;101024.06;4896329;28;97346;-46
2022/10/22 08:42:36;;;;;;;4.17;2.77;;;;;;;15.02;68.09;101016.19;4898675;28;97400;-45
2022/10/22 08:45:11;;;;;;;3.53;3.00;;;;;;;15.09;67.62;101023.22;4895480;28;100643;-46
2022/10/22 08:47:52;;;;;;;4.70;2.80;;;;;;;15.18;68.02;101026.41;4899930;28;98227;-48
2022/10/22 08:50:37;;;;;;;4.30;2.80;;;;;;;15.25;68.30;101017.53;4897656;28;98229;-47
2022/10/22 08:53:11;;;;;;;3.20;2.90;;;;;;;15.34;67.77;101016.44;4897385;28;97595;-45
2022/10/22 08:55:37;;;;;;;4.10;3.20;;;;;;;15.44;67.85;101023.94;4898696;28;97435;-46
2022/10/22 08:58:02;;;;;;;2.97;2.60;;;;;;;15.53;67.88;101020.84;4898456;28;97318;-45
2022/10/22 09:00:40;;;;;;;4.57;2.80;;;;;;;15.63;68.23;101021.28;4898153;28;97366;-45
2022/10/22 09:03:08;;;;;;;3.57;3.27;;;;;;;15.73;68.14;101023.19;4898034;28;96993;-45
2022/10/22 09:05:55;;;;;;;2.90;2.70;;;;;;;15.85;68.86;101023.09;4897794;28;97017;-48
2022/10/22 09:08:21;;;;;;;3.23;2.57;;;;;;;15.93;68.19;101027.53;4895228;28;97184;-45
2022/10/22 09:10:52;;;;;;;3.53;2.67;;;;;;;16.02;68.33;101026.44;4894549;28;97038;-49
2022/10/22 09:13:21;;;;;;;3.33;1.90;;;;;;;16.14;68.65;101028.56;4896979;28;99667;-48
2022/10/22 09:15:53;;;;;;;4.30;3.33;;;;;;;16.27;68.43;101045.31;4896838;28;97300;-49
2022/10/22 09:18:38;;;;;;;4.43;2.70;;;;;;;16.37;69.09;101029.81;4897631;28;97405;-45
2022/10/22 09:21:25;;;;;;;3.67;1.87;;;;;;;16.48;69.08;101028.94;4900998;28;98129;-48
2022/10/22 09:24:15;;;;;;;4.23;2.00;;;;;;;16.62;69.20;101038.13;4898593;28;103293;-46
2022/10/22 09:26:40;;;;;;;2.23;1.80;;;;;;;16.73;68.55;101038.00;4901480;28;97648;-45
2022/10/22 09:29:11;;;;;;;1.80;1.70;;;;;;;16.85;68.44;101036.56;4907012;28;97168;-47
2022/10/22 09:31:36;;;;;;;2.17;2.07;;;;;;;16.96;68.58;101028.06;4902760;28;97286;-48
2022/10/22 09:34:06;;;;;;;3.23;1.57;;;;;;;17.04;68.64;101026.91;4905085;28;97851;-46
2022/10/22 09:36:32;;;;;;;2.10;1.70;;;;;;;17.13;68.76;101040.44;4905098;28;97679;-47
2022/10/22 09:38:58;;;;;;;1.80;1.70;;;;;;;17.24;68.89;101031.94;4909360;28;96888;-46
2022/10/22 09:41:28;;;;;;;5.50;1.60;;;;;;;17.33;68.90;101032.81;4906459;28;96782;-45
2022/10/22 09:43:54;;;;;;;2.13;1.60;;;;;;;17.44;68.77;101032.63;4904480;28;97059;-44
2022/10/22 09:46:22;;;;;;;3.23;1.50;;;;;;;17.53;68.58;101030.22;4906005;28;97229;-45
2022/10/22 09:48:57;;;;;;;1.67;1.10;;;;;;;17.63;68.70;101034.09;4908918;28;96764;-46
2022/10/22 09:51:34;;;;;;;1.73;1.50;;;;;;;17.77;68.70;101041.19;4903046;28;97228;-47
2022/10/22 09:54:02;;;;;;;8.13;1.80;;;;;;;17.90;68.48;101046.78;4904527;28;97633;-45
2022/10/22 09:56:34;;;;;;;3.07;1.60;;;;;;;18.04;68.41;101041.97;4905039;28;97909;-44
2022/10/22 09:59:00;;;;;;;2.57;1.47;;;;;;;18.13;68.29;101054.72;4908841;28;97139;-44
2022/10/22 10:01:31;;;;;;;2.00;1.80;;;;;;;18.24;68.26;101051.72;4904649;28;108909;-45
2022/10/22 10:04:05;;;;;;;3.03;1.90;;;;;;;18.34;68.29;101050.75;4905097;28;97413;-45
2022/10/22 10:06:33;;;;;;;2.40;1.63;;;;;;;18.45;68.34;101052.59;4904639;28;97609;-46
2022/10/22 10:09:02;;;;;;;2.27;1.60;;;;;;;18.53;68.07;101059.75;4905694;28;96762;-45
2022/10/22 10:11:44;;;;;;;6.53;1.47;;;;;;;18.62;68.38;101050.97;4906978;28;96933;-47
2022/10/22 10:14:34;;;;;;;4.17;1.90;;;;;;;18.70;68.18;101059.41;4903180;28;97454;-47
2022/10/22 10:17:10;;;;;;;1.57;1.47;;;;;;;18.81;67.90;101059.16;4920378;28;103757;-47
2022/10/22 10:19:39;;;;;;;2.03;1.67;;;;;;;18.92;67.97;101069.31;4903947;28;97346;-47
2022/10/22 10:22:10;;;;;;;6.23;1.83;;;;;;;19.03;68.11;101069.84;4905754;28;96912;-47
2022/10/22 10:24:54;;;;;;;1.77;1.67;;;;;;;19.10;67.35;101071.22;4898310;28;103632;-45
2022/10/22 10:27:52;;;;;;;2.90;1.30;;;;;;;19.16;67.51;101066.25;4901161;28;99999;-45
2022/10/22 10:30:22;;;;;;;10.00;1.57;;;;;;;19.22;67.63;101067.59;4904759;28;97299;-48
2022/10/22 10:32:48;;;;;;;2.07;1.97;;;;;;;19.35;67.62;101064.78;4906498;28;97546;-46
2022/10/22 10:35:19;;;;;;;3.00;1.50;;;;;;;19.47;67.47;101070.88;4906344;28;98136;-45
2022/10/22 10:37:59;;;;;;;1.57;1.47;;;;;;;19.60;67.12;101070.03;4905935;28;100211;-45
2022/10/22 10:40:50;;;;;;;3.10;1.30;;;;;;;19.74;66.99;101068.69;4905572;28;97082;-45
2022/10/22 10:43:40;;;;;;;4.53;1.40;;;;;;;19.83;66.75;101066.13;4908225;28;97048;-47
2022/10/22 10:46:22;;;;;;;2.43;1.80;;;;;;;19.91;66.82;101060.63;4900681;28;103104;-45
2022/10/22 10:48:53;;;;;;;1.87;1.47;;;;;;;19.99;66.40;101061.41;4903224;28;97384;-48
2022/10/22 10:51:33;;;;;;;1.70;1.50;;;;;;;20.10;66.42;101063.91;4903087;28;97031;-45
2022/10/22 10:54:24;;;;;;;3.57;1.60;;;;;;;20.20;66.12;101059.34;4906135;28;97220;-46
2022/10/22 10:57:01;;;;;;;4.23;1.70;;;;;;;20.33;65.79;101073.22;4903549;28;101794;-45
2022/10/22 10:59:52;;;;;;;3.30;1.90;;;;;;;20.46;65.88;101070.31;4899593;28;97241;-46
2022/10/22 11:02:44;;;;;;;2.57;2.10;;;;;;;20.55;65.41;101064.19;4905144;28;99430;-48
2022/10/22 11:05:32;;;;;;;6.90;1.73;;;;;;;20.63;65.34;101073.38;4904479;28;97849;-45
2022/10/22 11:08:19;;;;;;;2.17;1.30;;;;;;;20.71;65.68;101084.56;4903249;28;101598;-46
2022/10/22 11:10:51;;;;;;;2.93;1.60;;;;;;;20.76;65.29;101086.47;4904443;28;102862;-47
2022/10/22 11:13:32;;;;;;;4.63;1.60;;;;;;;20.81;64.47;101085.56;4904012;28;97248;-45
2022/10/22 11:16:26;;;;;;;3.00;1.70;;;;;;;20.84;64.29;101087.25;4903710;28;96675;-47
2022/10/22 11:19:17;;;;;;;2.00;1.80;;;;;;;20.99;64.89;101083.78;4902158;28;100579;-47
2022/10/22 11:22:03;;;;;;;2.83;1.47;;;;;;;21.19;64.50;101078.06;4901118;28;100437;-45
2022/10/22 11:24:42;;;;;;;2.50;1.30;;;;;;;21.24;64.45;101085.53;4902952;28;98379;-45
2022/10/22 11:27:25;;;;;;;2.80;1.70;;;;;;;21.25;63.83;101086.28;4903312;28;97763;-45
2022/10/22 11:29:57;;;;;;;6.67;1.40;;;;;;;21.49;64.33;101080.19;4902636;28;97488;-47
2022/10/22 11:32:25;;;;;;;1.90;1.20;;;;;;;21.54;63.97;101079.22;4902260;28;97217;-47
2022/10/22 11:34:55;;;;;;;2.80;1.80;;;;;;;21.57;63.82;101087.28;4905319;28;96925;-49